sensor_id;sensor_type;location;lat;lon;timestamp;P1;P2;P0
79537;PMS5003;68989;52.032;5.152;2023-04-03T00:01:54;3;3;
79537;PMS5003;68989;52.032;5.152;2023-04-03T00:04:21;5;5;
79537;PMS5003;68989;52.032;5.152;2023-04-03T00:06:48;3;3;
79537;PMS5003;68989;52.032;5.152;2023-04-03T00:09:14;4;4;
79537;PMS5003;68989;52.032;5.152;2023-04-03T00:11:41;5;4;
79537;PMS5003;68989;52.032;5.152;2023-04-03T00:14:08;4;4;
79537;PMS5003;68989;52.032;5.152;2023-04-03T00:16:35;2;2;
79537;PMS5003;68989;52.032;5.152;2023-04-03T00:19:02;4;4;
79537;PMS5003;68989;52.032;5.152;2023-04-03T00:21:29;3;3;
79537;PMS5003;68989;52.032;5.152;2023-04-03T00:23:56;2;2;
79537;PMS5003;68989;52.032;5.152;2023-04-03T00:26:23;3;3;
79537;PMS5003;68989;52.032;5.152;2023-04-03T00:28:50;4;2;
79537;PMS5003;68989;52.032;5.152;2023-04-03T00:31:17;2;2;
79537;PMS5003;68989;52.032;5.152;2023-04-03T00:33:44;3;3;
79537;PMS5003;68989;52.032;5.152;2023-04-03T00:36:11;4;4;
79537;PMS5003;68989;52.032;5.152;2023-04-03T00:38:38;3;3;
79537;PMS5003;68989;52.032;5.152;2023-04-03T00:41:06;6;4;
79537;PMS5003;68989;52.032;5.152;2023-04-03T00:43:33;5;5;
79537;PMS5003;68989;52.032;5.152;2023-04-03T00:46:00;4;4;
79537;PMS5003;68989;52.032;5.152;2023-04-03T00:48:28;5;3;
79537;PMS5003;68989;52.032;5.152;2023-04-03T00:50:58;3;3;
79537;PMS5003;68989;52.032;5.152;2023-04-03T00:53:26;2;2;
79537;PMS5003;68989;52.032;5.152;2023-04-03T00:55:57;4;4;
79537;PMS5003;68989;52.032;5.152;2023-04-03T00:58:27;3;3;
79537;PMS5003;68989;52.032;5.152;2023-04-03T01:02:30;3;3;
79537;PMS5003;68989;52.032;5.152;2023-04-03T01:04:58;3;3;
79537;PMS5003;68989;52.032;5.152;2023-04-03T01:07:26;4;4;
79537;PMS5003;68989;52.032;5.152;2023-04-03T01:09:57;3;3;
79537;PMS5003;68989;52.032;5.152;2023-04-03T01:12:27;4;4;
79537;PMS5003;68989;52.032;5.152;2023-04-03T01:14:56;3;3;
79537;PMS5003;68989;52.032;5.152;2023-04-03T01:17:27;4;4;
79537;PMS5003;68989;52.032;5.152;2023-04-03T01:20:01;4;2;
79537;PMS5003;68989;52.032;5.152;2023-04-03T01:22:48;3;3;
79537;PMS5003;68989;52.032;5.152;2023-04-03T01:25:25;5;5;
79537;PMS5003;68989;52.032;5.152;2023-04-03T01:27:53;3;3;
79537;PMS5003;68989;52.032;5.152;2023-04-03T01:30:21;4;4;
79537;PMS5003;68989;52.032;5.152;2023-04-03T01:32:54;4;4;
79537;PMS5003;68989;52.032;5.152;2023-04-03T01:35:21;9;4;
79537;PMS5003;68989;52.032;5.152;2023-04-03T01:37:48;4;3;
79537;PMS5003;68989;52.032;5.152;2023-04-03T01:40:15;5;5;
79537;PMS5003;68989;52.032;5.152;2023-04-03T01:42:42;8;5;
79537;PMS5003;68989;52.032;5.152;2023-04-03T01:45:09;3;3;
79537;PMS5003;68989;52.032;5.152;2023-04-03T01:47:37;5;5;
79537;PMS5003;68989;52.032;5.152;2023-04-03T01:50:04;4;4;
79537;PMS5003;68989;52.032;5.152;2023-04-03T01:52:31;8;5;
79537;PMS5003;68989;52.032;5.152;2023-04-03T01:52:32;6;4;
79537;PMS5003;68989;52.032;5.152;2023-04-03T01:54:59;4;3;
79537;PMS5003;68989;52.032;5.152;2023-04-03T01:57:26;6;6;
79537;PMS5003;68989;52.032;5.152;2023-04-03T01:59:53;3;3;
79537;PMS5003;68989;52.032;5.152;2023-04-03T02:02:20;3;3;
79537;PMS5003;68989;52.032;5.152;2023-04-03T02:04:47;5;3;
79537;PMS5003;68989;52.032;5.152;2023-04-03T02:07:14;5;3;
79537;PMS5003;68989;52.032;5.152;2023-04-03T02:09:41;4;4;
79537;PMS5003;68989;52.032;5.152;2023-04-03T02:12:08;4;4;
79537;PMS5003;68989;52.032;5.152;2023-04-03T02:14:35;4;4;
79537;PMS5003;68989;52.032;5.152;2023-04-03T02:17:02;7;5;
79537;PMS5003;68989;52.032;5.152;2023-04-03T02:19:29;5;5;
79537;PMS5003;68989;52.032;5.152;2023-04-03T02:21:56;5;5;
79537;PMS5003;68989;52.032;5.152;2023-04-03T02:24:23;6;4;
79537;PMS5003;68989;52.032;5.152;2023-04-03T02:26:50;4;4;
79537;PMS5003;68989;52.032;5.152;2023-04-03T02:29:17;5;5;
79537;PMS5003;68989;52.032;5.152;2023-04-03T02:31:44;4;4;
79537;PMS5003;68989;52.032;5.152;2023-04-03T02:34:11;4;4;
79537;PMS5003;68989;52.032;5.152;2023-04-03T02:36:38;4;4;
79537;PMS5003;68989;52.032;5.152;2023-04-03T02:39:05;4;4;
79537;PMS5003;68989;52.032;5.152;2023-04-03T02:41:32;4;4;
79537;PMS5003;68989;52.032;5.152;2023-04-03T02:43:59;5;5;
79537;PMS5003;68989;52.032;5.152;2023-04-03T02:46:26;7;4;
79537;PMS5003;68989;52.032;5.152;2023-04-03T02:48:53;7;4;
79537;PMS5003;68989;52.032;5.152;2023-04-03T02:51:20;4;4;
79537;PMS5003;68989;52.032;5.152;2023-04-03T02:53:47;5;5;
79537;PMS5003;68989;52.032;5.152;2023-04-03T02:56:14;4;4;
79537;PMS5003;68989;52.032;5.152;2023-04-03T02:58:41;5;5;
79537;PMS5003;68989;52.032;5.152;2023-04-03T03:01:08;10;7;
79537;PMS5003;68989;52.032;5.152;2023-04-03T03:03:35;8;8;
79537;PMS5003;68989;52.032;5.152;2023-04-03T03:06:02;4;4;
79537;PMS5003;68989;52.032;5.152;2023-04-03T03:08:30;8;5;
79537;PMS5003;68989;52.032;5.152;2023-04-03T03:10:58;4;4;
79537;PMS5003;68989;52.032;5.152;2023-04-03T03:13:25;4;4;
79537;PMS5003;68989;52.032;5.152;2023-04-03T03:15:52;4;4;
79537;PMS5003;68989;52.032;5.152;2023-04-03T03:18:18;5;5;
79537;PMS5003;68989;52.032;5.152;2023-04-03T03:20:45;5;5;
79537;PMS5003;68989;52.032;5.152;2023-04-03T03:23:13;5;5;
79537;PMS5003;68989;52.032;5.152;2023-04-03T03:25:40;8;8;
79537;PMS5003;68989;52.032;5.152;2023-04-03T03:28:07;7;5;
79537;PMS5003;68989;52.032;5.152;2023-04-03T03:30:34;5;5;
79537;PMS5003;68989;52.032;5.152;2023-04-03T03:33:01;7;4;
79537;PMS5003;68989;52.032;5.152;2023-04-03T03:35:28;7;5;
79537;PMS5003;68989;52.032;5.152;2023-04-03T03:37:55;4;4;
79537;PMS5003;68989;52.032;5.152;2023-04-03T03:40:22;5;5;
79537;PMS5003;68989;52.032;5.152;2023-04-03T03:42:49;4;4;
79537;PMS5003;68989;52.032;5.152;2023-04-03T03:45:16;4;4;
79537;PMS5003;68989;52.032;5.152;2023-04-03T03:47:43;3;3;
79537;PMS5003;68989;52.032;5.152;2023-04-03T03:50:10;8;5;
79537;PMS5003;68989;52.032;5.152;2023-04-03T03:52:37;7;7;
79537;PMS5003;68989;52.032;5.152;2023-04-03T03:55:04;7;7;
79537;PMS5003;68989;52.032;5.152;2023-04-03T03:57:32;7;7;
79537;PMS5003;68989;52.032;5.152;2023-04-03T03:59:59;8;8;
79537;PMS5003;68989;52.032;5.152;2023-04-03T04:02:26;7;7;
79537;PMS5003;68989;52.032;5.152;2023-04-03T04:04:53;8;7;
79537;PMS5003;68989;52.032;5.152;2023-04-03T04:07:20;9;8;
79537;PMS5003;68989;52.032;5.152;2023-04-03T04:09:47;7;7;
79537;PMS5003;68989;52.032;5.152;2023-04-03T04:12:14;8;7;
79537;PMS5003;68989;52.032;5.152;2023-04-03T04:14:41;5;5;
79537;PMS5003;68989;52.032;5.152;2023-04-03T04:17:08;7;7;
79537;PMS5003;68989;52.032;5.152;2023-04-03T04:19:35;5;5;
79537;PMS5003;68989;52.032;5.152;2023-04-03T04:22:02;5;5;
79537;PMS5003;68989;52.032;5.152;2023-04-03T04:24:29;7;4;
79537;PMS5003;68989;52.032;5.152;2023-04-03T04:26:56;7;7;
79537;PMS5003;68989;52.032;5.152;2023-04-03T04:29:23;5;5;
79537;PMS5003;68989;52.032;5.152;2023-04-03T04:31:50;5;5;
79537;PMS5003;68989;52.032;5.152;2023-04-03T04:34:17;7;4;
79537;PMS5003;68989;52.032;5.152;2023-04-03T04:36:44;9;8;
79537;PMS5003;68989;52.032;5.152;2023-04-03T04:39:11;8;8;
79537;PMS5003;68989;52.032;5.152;2023-04-03T04:41:38;7;7;
79537;PMS5003;68989;52.032;5.152;2023-04-03T04:44:05;8;8;
79537;PMS5003;68989;52.032;5.152;2023-04-03T04:46:32;4;4;
79537;PMS5003;68989;52.032;5.152;2023-04-03T04:48:59;7;7;
79537;PMS5003;68989;52.032;5.152;2023-04-03T04:51:26;5;5;
79537;PMS5003;68989;52.032;5.152;2023-04-03T04:53:53;10;7;
79537;PMS5003;68989;52.032;5.152;2023-04-03T04:56:20;7;7;
79537;PMS5003;68989;52.032;5.152;2023-04-03T04:58:47;7;7;
79537;PMS5003;68989;52.032;5.152;2023-04-03T05:01:14;7;5;
79537;PMS5003;68989;52.032;5.152;2023-04-03T05:03:41;9;7;
79537;PMS5003;68989;52.032;5.152;2023-04-03T05:06:08;5;5;
79537;PMS5003;68989;52.032;5.152;2023-04-03T05:08:35;8;8;
79537;PMS5003;68989;52.032;5.152;2023-04-03T05:11:02;9;5;
79537;PMS5003;68989;52.032;5.152;2023-04-03T05:13:29;9;7;
79537;PMS5003;68989;52.032;5.152;2023-04-03T05:15:56;8;8;
79537;PMS5003;68989;52.032;5.152;2023-04-03T05:18:23;8;7;
79537;PMS5003;68989;52.032;5.152;2023-04-03T05:20:50;10;7;
79537;PMS5003;68989;52.032;5.152;2023-04-03T05:23:17;10;9;
79537;PMS5003;68989;52.032;5.152;2023-04-03T05:25:45;5;5;
79537;PMS5003;68989;52.032;5.152;2023-04-03T05:28:12;8;8;
79537;PMS5003;68989;52.032;5.152;2023-04-03T05:30:38;8;8;
79537;PMS5003;68989;52.032;5.152;2023-04-03T05:33:05;8;8;
79537;PMS5003;68989;52.032;5.152;2023-04-03T05:35:32;10;10;
79537;PMS5003;68989;52.032;5.152;2023-04-03T05:38:01;9;8;
79537;PMS5003;68989;52.032;5.152;2023-04-03T05:40:28;9;9;
79537;PMS5003;68989;52.032;5.152;2023-04-03T05:42:55;7;7;
79537;PMS5003;68989;52.032;5.152;2023-04-03T05:45:22;7;7;
79537;PMS5003;68989;52.032;5.152;2023-04-03T05:47:49;9;8;
79537;PMS5003;68989;52.032;5.152;2023-04-03T05:50:16;8;7;
79537;PMS5003;68989;52.032;5.152;2023-04-03T05:52:43;7;7;
79537;PMS5003;68989;52.032;5.152;2023-04-03T05:55:12;7;7;
79537;PMS5003;68989;52.032;5.152;2023-04-03T05:57:40;9;8;
79537;PMS5003;68989;52.032;5.152;2023-04-03T06:00:08;9;9;
79537;PMS5003;68989;52.032;5.152;2023-04-03T06:02:38;10;9;
79537;PMS5003;68989;52.032;5.152;2023-04-03T06:05:05;9;7;
79537;PMS5003;68989;52.032;5.152;2023-04-03T06:07:33;9;9;
79537;PMS5003;68989;52.032;5.152;2023-04-03T06:10:00;9;9;
79537;PMS5003;68989;52.032;5.152;2023-04-03T06:12:27;13;8;
79537;PMS5003;68989;52.032;5.152;2023-04-03T06:14:54;9;9;
79537;PMS5003;68989;52.032;5.152;2023-04-03T06:17:22;7;7;
79537;PMS5003;68989;52.032;5.152;2023-04-03T06:19:49;9;8;
79537;PMS5003;68989;52.032;5.152;2023-04-03T06:22:16;9;8;
79537;PMS5003;68989;52.032;5.152;2023-04-03T06:24:43;8;8;
79537;PMS5003;68989;52.032;5.152;2023-04-03T06:27:10;7;7;
79537;PMS5003;68989;52.032;5.152;2023-04-03T06:29:38;9;8;
79537;PMS5003;68989;52.032;5.152;2023-04-03T06:32:05;7;7;
79537;PMS5003;68989;52.032;5.152;2023-04-03T06:34:32;8;8;
79537;PMS5003;68989;52.032;5.152;2023-04-03T06:36:59;7;7;
79537;PMS5003;68989;52.032;5.152;2023-04-03T06:39:26;12;8;
79537;PMS5003;68989;52.032;5.152;2023-04-03T06:41:53;12;8;
79537;PMS5003;68989;52.032;5.152;2023-04-03T06:44:20;8;8;
79537;PMS5003;68989;52.032;5.152;2023-04-03T06:46:47;9;8;
79537;PMS5003;68989;52.032;5.152;2023-04-03T06:49:14;9;8;
79537;PMS5003;68989;52.032;5.152;2023-04-03T06:51:41;8;7;
79537;PMS5003;68989;52.032;5.152;2023-04-03T06:54:08;8;7;
79537;PMS5003;68989;52.032;5.152;2023-04-03T06:56:35;10;9;
79537;PMS5003;68989;52.032;5.152;2023-04-03T06:59:02;8;8;
79537;PMS5003;68989;52.032;5.152;2023-04-03T07:01:29;8;7;
79537;PMS5003;68989;52.032;5.152;2023-04-03T07:03:57;7;7;
79537;PMS5003;68989;52.032;5.152;2023-04-03T07:06:24;9;9;
79537;PMS5003;68989;52.032;5.152;2023-04-03T07:08:51;7;5;
79537;PMS5003;68989;52.032;5.152;2023-04-03T07:11:18;8;8;
79537;PMS5003;68989;52.032;5.152;2023-04-03T07:13:45;5;5;
79537;PMS5003;68989;52.032;5.152;2023-04-03T07:16:12;5;5;
79537;PMS5003;68989;52.032;5.152;2023-04-03T07:18:39;8;5;
79537;PMS5003;68989;52.032;5.152;2023-04-03T07:21:06;9;9;
79537;PMS5003;68989;52.032;5.152;2023-04-03T07:23:34;8;7;
79537;PMS5003;68989;52.032;5.152;2023-04-03T07:26:01;6;6;
79537;PMS5003;68989;52.032;5.152;2023-04-03T07:28:28;8;6;
79537;PMS5003;68989;52.032;5.152;2023-04-03T07:30:59;10;6;
79537;PMS5003;68989;52.032;5.152;2023-04-03T07:33:27;8;8;
79537;PMS5003;68989;52.032;5.152;2023-04-03T07:35:54;5;5;
79537;PMS5003;68989;52.032;5.152;2023-04-03T07:38:21;6;6;
79537;PMS5003;68989;52.032;5.152;2023-04-03T07:40:49;6;5;
79537;PMS5003;68989;52.032;5.152;2023-04-03T07:43:18;6;6;
79537;PMS5003;68989;52.032;5.152;2023-04-03T07:45:46;5;5;
79537;PMS5003;68989;52.032;5.152;2023-04-03T07:48:13;5;5;
79537;PMS5003;68989;52.032;5.152;2023-04-03T07:50:40;6;6;
79537;PMS5003;68989;52.032;5.152;2023-04-03T07:53:07;6;5;
79537;PMS5003;68989;52.032;5.152;2023-04-03T07:55:34;5;5;
79537;PMS5003;68989;52.032;5.152;2023-04-03T07:58:02;5;5;
79537;PMS5003;68989;52.032;5.152;2023-04-03T08:00:29;10;6;
79537;PMS5003;68989;52.032;5.152;2023-04-03T08:02:56;4;4;
79537;PMS5003;68989;52.032;5.152;2023-04-03T08:05:23;5;5;
79537;PMS5003;68989;52.032;5.152;2023-04-03T08:07:50;6;5;
79537;PMS5003;68989;52.032;5.152;2023-04-03T08:10:17;6;4;
79537;PMS5003;68989;52.032;5.152;2023-04-03T08:12:45;4;4;
79537;PMS5003;68989;52.032;5.152;2023-04-03T08:15:14;6;3;
79537;PMS5003;68989;52.032;5.152;2023-04-03T08:17:41;5;5;
79537;PMS5003;68989;52.032;5.152;2023-04-03T08:20:09;5;5;
79537;PMS5003;68989;52.032;5.152;2023-04-03T08:22:37;4;3;
79537;PMS5003;68989;52.032;5.152;2023-04-03T08:25:04;5;5;
79537;PMS5003;68989;52.032;5.152;2023-04-03T08:27:32;6;4;
79537;PMS5003;68989;52.032;5.152;2023-04-03T08:29:59;5;5;
79537;PMS5003;68989;52.032;5.152;2023-04-03T08:32:26;4;4;
79537;PMS5003;68989;52.032;5.152;2023-04-03T08:34:53;4;4;
79537;PMS5003;68989;52.032;5.152;2023-04-03T08:37:21;8;5;
79537;PMS5003;68989;52.032;5.152;2023-04-03T08:39:48;5;5;
79537;PMS5003;68989;52.032;5.152;2023-04-03T08:42:16;3;3;
79537;PMS5003;68989;52.032;5.152;2023-04-03T08:44:52;5;5;
79537;PMS5003;68989;52.032;5.152;2023-04-03T08:47:37;4;4;
79537;PMS5003;68989;52.032;5.152;2023-04-03T08:50:07;4;4;
79537;PMS5003;68989;52.032;5.152;2023-04-03T08:52:39;7;5;
79537;PMS5003;68989;52.032;5.152;2023-04-03T08:55:13;5;5;
79537;PMS5003;68989;52.032;5.152;2023-04-03T08:57:49;6;5;
79537;PMS5003;68989;52.032;5.152;2023-04-03T09:00:22;5;3;
79537;PMS5003;68989;52.032;5.152;2023-04-03T09:02:51;4;4;
79537;PMS5003;68989;52.032;5.152;2023-04-03T09:05:20;6;5;
79537;PMS5003;68989;52.032;5.152;2023-04-03T09:07:59;4;3;
79537;PMS5003;68989;52.032;5.152;2023-04-03T09:10:30;3;3;
79537;PMS5003;68989;52.032;5.152;2023-04-03T09:13:04;4;2;
79537;PMS5003;68989;52.032;5.152;2023-04-03T09:15:38;3;3;
79537;PMS5003;68989;52.032;5.152;2023-04-03T09:18:06;2;2;
79537;PMS5003;68989;52.032;5.152;2023-04-03T09:20:43;2;2;
79537;PMS5003;68989;52.032;5.152;2023-04-03T09:23:18;2;2;
79537;PMS5003;68989;52.032;5.152;2023-04-03T09:25:49;2;2;
79537;PMS5003;68989;52.032;5.152;2023-04-03T09:28:18;2;2;
79537;PMS5003;68989;52.032;5.152;2023-04-03T09:30:45;1;1;
79537;PMS5003;68989;52.032;5.152;2023-04-03T09:33:12;1;1;
79537;PMS5003;68989;52.032;5.152;2023-04-03T09:35:41;1;1;
79537;PMS5003;68989;52.032;5.152;2023-04-03T09:38:17;2;1;
79537;PMS5003;68989;52.032;5.152;2023-04-03T09:40:46;2;2;
79537;PMS5003;68989;52.032;5.152;2023-04-03T09:43:24;1;1;
79537;PMS5003;68989;52.032;5.152;2023-04-03T09:45:53;2;2;
79537;PMS5003;68989;52.032;5.152;2023-04-03T09:48:21;1;1;
79537;PMS5003;68989;52.032;5.152;2023-04-03T09:50:53;3;1;
79537;PMS5003;68989;52.032;5.152;2023-04-03T09:53:26;2;1;
79537;PMS5003;68989;52.032;5.152;2023-04-03T09:55:55;1;1;
79537;PMS5003;68989;52.032;5.152;2023-04-03T09:58:23;1;1;
79537;PMS5003;68989;52.032;5.152;2023-04-03T10:00:54;2;1;
79537;PMS5003;68989;52.032;5.152;2023-04-03T10:03:24;1;1;
79537;PMS5003;68989;52.032;5.152;2023-04-03T10:05:53;1;1;
79537;PMS5003;68989;52.032;5.152;2023-04-03T10:08:21;1;1;
79537;PMS5003;68989;52.032;5.152;2023-04-03T10:11:05;1;1;
79537;PMS5003;68989;52.032;5.152;2023-04-03T10:13:35;1;0;
79537;PMS5003;68989;52.032;5.152;2023-04-03T10:16:04;1;1;
79537;PMS5003;68989;52.032;5.152;2023-04-03T10:18:38;1;1;
79537;PMS5003;68989;52.032;5.152;2023-04-03T10:21:13;1;1;
79537;PMS5003;68989;52.032;5.152;2023-04-03T10:23:47;0;0;
79537;PMS5003;68989;52.032;5.152;2023-04-03T10:26:23;0;0;
79537;PMS5003;68989;52.032;5.152;2023-04-03T10:29:01;0;0;
79537;PMS5003;68989;52.032;5.152;2023-04-03T10:31:37;0;0;
79537;PMS5003;68989;52.032;5.152;2023-04-03T10:34:13;0;0;
79537;PMS5003;68989;52.032;5.152;2023-04-03T10:36:49;0;0;
79537;PMS5003;68989;52.032;5.152;2023-04-03T10:39:25;2;0;
79537;PMS5003;68989;52.032;5.152;2023-04-03T10:42:02;0;0;
79537;PMS5003;68989;52.032;5.152;2023-04-03T10:44:36;0;0;
79537;PMS5003;68989;52.032;5.152;2023-04-03T10:47:15;0;0;
79537;PMS5003;68989;52.032;5.152;2023-04-03T10:49:49;0;0;
79537;PMS5003;68989;52.032;5.152;2023-04-03T10:52:23;0;0;
79537;PMS5003;68989;52.032;5.152;2023-04-03T10:55:01;1;0;
79537;PMS5003;68989;52.032;5.152;2023-04-03T10:57:34;1;1;
79537;PMS5003;68989;52.032;5.152;2023-04-03T11:00:03;1;0;
79537;PMS5003;68989;52.032;5.152;2023-04-03T11:02:33;1;1;
79537;PMS5003;68989;52.032;5.152;2023-04-03T11:05:06;0;0;
79537;PMS5003;68989;52.032;5.152;2023-04-03T11:07:42;1;1;
79537;PMS5003;68989;52.032;5.152;2023-04-03T11:10:14;1;1;
79537;PMS5003;68989;52.032;5.152;2023-04-03T11:12:48;0;0;
79537;PMS5003;68989;52.032;5.152;2023-04-03T11:15:22;0;0;
79537;PMS5003;68989;52.032;5.152;2023-04-03T11:17:51;1;1;
79537;PMS5003;68989;52.032;5.152;2023-04-03T11:20:23;1;1;
79537;PMS5003;68989;52.032;5.152;2023-04-03T11:22:57;0;0;
79537;PMS5003;68989;52.032;5.152;2023-04-03T11:25:27;2;1;
79537;PMS5003;68989;52.032;5.152;2023-04-03T11:27:58;1;1;
79537;PMS5003;68989;52.032;5.152;2023-04-03T11:30:28;1;1;
79537;PMS5003;68989;52.032;5.152;2023-04-03T11:33:12;0;0;
79537;PMS5003;68989;52.032;5.152;2023-04-03T11:35:48;1;1;
79537;PMS5003;68989;52.032;5.152;2023-04-03T11:38:19;1;1;
79537;PMS5003;68989;52.032;5.152;2023-04-03T11:40:51;1;1;
79537;PMS5003;68989;52.032;5.152;2023-04-03T11:43:24;2;0;
79537;PMS5003;68989;52.032;5.152;2023-04-03T11:45:55;1;1;
79537;PMS5003;68989;52.032;5.152;2023-04-03T11:48:56;1;1;
79537;PMS5003;68989;52.032;5.152;2023-04-03T11:51:56;2;2;
79537;PMS5003;68989;52.032;5.152;2023-04-03T11:54:55;1;1;
79537;PMS5003;68989;52.032;5.152;2023-04-03T11:57:42;1;1;
79537;PMS5003;68989;52.032;5.152;2023-04-03T12:01:42;1;1;
79537;PMS5003;68989;52.032;5.152;2023-04-03T12:04:11;1;1;
79537;PMS5003;68989;52.032;5.152;2023-04-03T12:07:40;1;1;
79537;PMS5003;68989;52.032;5.152;2023-04-03T12:10:22;3;2;
79537;PMS5003;68989;52.032;5.152;2023-04-03T12:13:12;0;0;
79537;PMS5003;68989;52.032;5.152;2023-04-03T12:15:51;2;2;
79537;PMS5003;68989;52.032;5.152;2023-04-03T12:18:43;0;0;
79537;PMS5003;68989;52.032;5.152;2023-04-03T12:21:20;1;1;
79537;PMS5003;68989;52.032;5.152;2023-04-03T12:24:05;1;1;
79537;PMS5003;68989;52.032;5.152;2023-04-03T12:27:01;1;1;
79537;PMS5003;68989;52.032;5.152;2023-04-03T12:29:33;3;3;
79537;PMS5003;68989;52.032;5.152;2023-04-03T12:32:06;0;0;
79537;PMS5003;68989;52.032;5.152;2023-04-03T12:34:45;1;1;
79537;PMS5003;68989;52.032;5.152;2023-04-03T12:37:27;1;1;
79537;PMS5003;68989;52.032;5.152;2023-04-03T12:40:16;2;2;
79537;PMS5003;68989;52.032;5.152;2023-04-03T12:42:57;2;2;
79537;PMS5003;68989;52.032;5.152;2023-04-03T12:45:40;0;0;
79537;PMS5003;68989;52.032;5.152;2023-04-03T12:48:12;1;1;
79537;PMS5003;68989;52.032;5.152;2023-04-03T12:50:43;1;1;
79537;PMS5003;68989;52.032;5.152;2023-04-03T12:53:13;2;1;
79537;PMS5003;68989;52.032;5.152;2023-04-03T12:55:44;2;2;
79537;PMS5003;68989;52.032;5.152;2023-04-03T12:58:16;1;1;
79537;PMS5003;68989;52.032;5.152;2023-04-03T13:00:47;2;2;
79537;PMS5003;68989;52.032;5.152;2023-04-03T13:03:26;2;2;
79537;PMS5003;68989;52.032;5.152;2023-04-03T13:05:54;2;1;
79537;PMS5003;68989;52.032;5.152;2023-04-03T13:08:25;2;1;
79537;PMS5003;68989;52.032;5.152;2023-04-03T13:10:55;1;1;
79537;PMS5003;68989;52.032;5.152;2023-04-03T13:13:27;1;1;
79537;PMS5003;68989;52.032;5.152;2023-04-03T13:15:55;2;2;
79537;PMS5003;68989;52.032;5.152;2023-04-03T13:18:24;0;0;
79537;PMS5003;68989;52.032;5.152;2023-04-03T13:20:55;2;0;
79537;PMS5003;68989;52.032;5.152;2023-04-03T13:23:26;2;2;
79537;PMS5003;68989;52.032;5.152;2023-04-03T13:25:55;2;1;
79537;PMS5003;68989;52.032;5.152;2023-04-03T13:28:23;1;1;
79537;PMS5003;68989;52.032;5.152;2023-04-03T13:30:56;0;0;
79537;PMS5003;68989;52.032;5.152;2023-04-03T13:33:28;1;1;
79537;PMS5003;68989;52.032;5.152;2023-04-03T13:36:00;2;2;
79537;PMS5003;68989;52.032;5.152;2023-04-03T13:38:30;1;1;
79537;PMS5003;68989;52.032;5.152;2023-04-03T13:40:59;1;1;
79537;PMS5003;68989;52.032;5.152;2023-04-03T13:43:29;1;1;
79537;PMS5003;68989;52.032;5.152;2023-04-03T13:46:01;1;1;
79537;PMS5003;68989;52.032;5.152;2023-04-03T13:48:36;2;2;
79537;PMS5003;68989;52.032;5.152;2023-04-03T13:51:05;1;1;
79537;PMS5003;68989;52.032;5.152;2023-04-03T13:53:45;2;1;
79537;PMS5003;68989;52.032;5.152;2023-04-03T13:56:17;1;1;
79537;PMS5003;68989;52.032;5.152;2023-04-03T13:58:53;3;3;
79537;PMS5003;68989;52.032;5.152;2023-04-03T14:01:24;1;1;
79537;PMS5003;68989;52.032;5.152;2023-04-03T14:03:53;1;1;
79537;PMS5003;68989;52.032;5.152;2023-04-03T14:06:22;1;1;
79537;PMS5003;68989;52.032;5.152;2023-04-03T14:08:51;1;1;
79537;PMS5003;68989;52.032;5.152;2023-04-03T14:11:18;0;0;
79537;PMS5003;68989;52.032;5.152;2023-04-03T14:13:47;2;2;
79537;PMS5003;68989;52.032;5.152;2023-04-03T14:16:17;2;1;
79537;PMS5003;68989;52.032;5.152;2023-04-03T14:18:46;2;2;
79537;PMS5003;68989;52.032;5.152;2023-04-03T14:21:15;1;1;
79537;PMS5003;68989;52.032;5.152;2023-04-03T14:23:46;2;2;
79537;PMS5003;68989;52.032;5.152;2023-04-03T14:26:14;1;1;
79537;PMS5003;68989;52.032;5.152;2023-04-03T14:28:43;2;2;
79537;PMS5003;68989;52.032;5.152;2023-04-03T14:31:11;1;1;
79537;PMS5003;68989;52.032;5.152;2023-04-03T14:33:38;1;1;
79537;PMS5003;68989;52.032;5.152;2023-04-03T14:36:10;1;1;
79537;PMS5003;68989;52.032;5.152;2023-04-03T14:38:40;1;1;
79537;PMS5003;68989;52.032;5.152;2023-04-03T14:41:09;2;2;
79537;PMS5003;68989;52.032;5.152;2023-04-03T14:43:38;1;1;
79537;PMS5003;68989;52.032;5.152;2023-04-03T14:46:09;2;2;
79537;PMS5003;68989;52.032;5.152;2023-04-03T14:48:39;2;2;
79537;PMS5003;68989;52.032;5.152;2023-04-03T14:51:06;2;2;
79537;PMS5003;68989;52.032;5.152;2023-04-03T14:53:33;1;1;
79537;PMS5003;68989;52.032;5.152;2023-04-03T14:56:00;3;3;
79537;PMS5003;68989;52.032;5.152;2023-04-03T14:58:26;1;1;
79537;PMS5003;68989;52.032;5.152;2023-04-03T15:00:54;2;2;
79537;PMS5003;68989;52.032;5.152;2023-04-03T15:03:21;3;2;
79537;PMS5003;68989;52.032;5.152;2023-04-03T15:05:48;2;2;
79537;PMS5003;68989;52.032;5.152;2023-04-03T15:08:19;2;2;
79537;PMS5003;68989;52.032;5.152;2023-04-03T15:10:47;1;1;
79537;PMS5003;68989;52.032;5.152;2023-04-03T15:13:15;2;2;
79537;PMS5003;68989;52.032;5.152;2023-04-03T15:15:42;1;1;
79537;PMS5003;68989;52.032;5.152;2023-04-03T15:18:10;3;3;
79537;PMS5003;68989;52.032;5.152;2023-04-03T15:20:43;4;4;
79537;PMS5003;68989;52.032;5.152;2023-04-03T15:23:10;1;1;
79537;PMS5003;68989;52.032;5.152;2023-04-03T15:25:38;3;3;
79537;PMS5003;68989;52.032;5.152;2023-04-03T15:28:06;2;2;
79537;PMS5003;68989;52.032;5.152;2023-04-03T15:30:36;1;1;
79537;PMS5003;68989;52.032;5.152;2023-04-03T15:33:05;2;2;
79537;PMS5003;68989;52.032;5.152;2023-04-03T15:35:33;2;2;
79537;PMS5003;68989;52.032;5.152;2023-04-03T15:38:00;2;2;
79537;PMS5003;68989;52.032;5.152;2023-04-03T15:40:26;4;4;
79537;PMS5003;68989;52.032;5.152;2023-04-03T15:42:53;3;2;
79537;PMS5003;68989;52.032;5.152;2023-04-03T15:45:21;4;4;
79537;PMS5003;68989;52.032;5.152;2023-04-03T15:47:49;3;2;
79537;PMS5003;68989;52.032;5.152;2023-04-03T15:50:16;4;3;
79537;PMS5003;68989;52.032;5.152;2023-04-03T15:52:44;4;4;
79537;PMS5003;68989;52.032;5.152;2023-04-03T15:55:11;4;3;
79537;PMS5003;68989;52.032;5.152;2023-04-03T15:57:37;2;1;
79537;PMS5003;68989;52.032;5.152;2023-04-03T16:00:05;3;3;
79537;PMS5003;68989;52.032;5.152;2023-04-03T16:02:33;3;3;
79537;PMS5003;68989;52.032;5.152;2023-04-03T16:05:00;4;3;
79537;PMS5003;68989;52.032;5.152;2023-04-03T16:07:27;3;3;
79537;PMS5003;68989;52.032;5.152;2023-04-03T16:09:55;4;4;
79537;PMS5003;68989;52.032;5.152;2023-04-03T16:12:22;3;3;
79537;PMS5003;68989;52.032;5.152;2023-04-03T16:14:49;4;4;
79537;PMS5003;68989;52.032;5.152;2023-04-03T16:17:17;4;4;
79537;PMS5003;68989;52.032;5.152;2023-04-03T16:19:44;4;3;
79537;PMS5003;68989;52.032;5.152;2023-04-03T16:22:10;5;3;
79537;PMS5003;68989;52.032;5.152;2023-04-03T16:24:37;5;3;
79537;PMS5003;68989;52.032;5.152;2023-04-03T16:27:04;5;3;
79537;PMS5003;68989;52.032;5.152;2023-04-03T16:29:31;3;3;
79537;PMS5003;68989;52.032;5.152;2023-04-03T16:31:58;4;4;
79537;PMS5003;68989;52.032;5.152;2023-04-03T16:34:26;3;3;
79537;PMS5003;68989;52.032;5.152;2023-04-03T16:36:53;3;3;
79537;PMS5003;68989;52.032;5.152;2023-04-03T16:39:20;4;4;
79537;PMS5003;68989;52.032;5.152;2023-04-03T16:41:47;3;3;
79537;PMS5003;68989;52.032;5.152;2023-04-03T16:44:13;3;3;
79537;PMS5003;68989;52.032;5.152;2023-04-03T16:46:40;4;4;
79537;PMS5003;68989;52.032;5.152;2023-04-03T16:49:07;5;5;
79537;PMS5003;68989;52.032;5.152;2023-04-03T16:51:34;5;5;
79537;PMS5003;68989;52.032;5.152;2023-04-03T16:54:01;3;3;
79537;PMS5003;68989;52.032;5.152;2023-04-03T16:56:28;2;2;
79537;PMS5003;68989;52.032;5.152;2023-04-03T16:58:54;3;3;
79537;PMS5003;68989;52.032;5.152;2023-04-03T17:01:21;3;3;
79537;PMS5003;68989;52.032;5.152;2023-04-03T17:03:49;6;5;
79537;PMS5003;68989;52.032;5.152;2023-04-03T17:06:17;6;6;
79537;PMS5003;68989;52.032;5.152;2023-04-03T17:08:47;6;5;